sensor_id;sensor_type;location;lat;lon;timestamp;pressure;altitude;pressure_sealevel;temperature;humidity
77112;BME280;66064;50.226;14.344;2023-11-19T00:00:59;99753.16;;;3.39;98.36
77112;BME280;66064;50.226;14.344;2023-11-19T00:03:46;99739.81;;;3.34;98.86
77112;BME280;66064;50.226;14.344;2023-11-19T00:06:12;99746.88;;;3.35;98.62
77112;BME280;66064;50.226;14.344;2023-11-19T00:08:39;99720.06;;;3.23;98.77
77112;BME280;66064;50.226;14.344;2023-11-19T00:11:05;99717.38;;;3.22;98.87
77112;BME280;66064;50.226;14.344;2023-11-19T00:13:31;99710.25;;;3.19;99.67
77112;BME280;66064;50.226;14.344;2023-11-19T00:15:57;99693.84;;;3.04;100.00
77112;BME280;66064;50.226;14.344;2023-11-19T00:18:23;99711.72;;;3.12;100.00
77112;BME280;66064;50.226;14.344;2023-11-19T00:20:48;99689.13;;;3.17;100.00
77112;BME280;66064;50.226;14.344;2023-11-19T00:23:14;99683.63;;;3.11;100.00
77112;BME280;66064;50.226;14.344;2023-11-19T00:25:41;99694.34;;;3.16;100.00
77112;BME280;66064;50.226;14.344;2023-11-19T00:28:07;99673.63;;;3.03;100.00
77112;BME280;66064;50.226;14.344;2023-11-19T00:30:33;99684.16;;;3.03;100.00
77112;BME280;66064;50.226;14.344;2023-11-19T00:32:59;99673.69;;;3.04;100.00
77112;BME280;66064;50.226;14.344;2023-11-19T00:35:25;99668.38;;;3.03;100.00
77112;BME280;66064;50.226;14.344;2023-11-19T00:37:51;99669.19;;;3.02;100.00
77112;BME280;66064;50.226;14.344;2023-11-19T00:40:19;99660.56;;;3.04;100.00
77112;BME280;66064;50.226;14.344;2023-11-19T00:42:49;99666.56;;;3.02;100.00
77112;BME280;66064;50.226;14.344;2023-11-19T00:45:14;99648.75;;;2.95;100.00
77112;BME280;66064;50.226;14.344;2023-11-19T00:47:41;99640.78;;;2.93;100.00
77112;BME280;66064;50.226;14.344;2023-11-19T00:50:07;99625.81;;;2.91;100.00
77112;BME280;66064;50.226;14.344;2023-11-19T00:52:38;99641.69;;;2.94;100.00
77112;BME280;66064;50.226;14.344;2023-11-19T00:55:05;99644.56;;;3.00;100.00
77112;BME280;66064;50.226;14.344;2023-11-19T00:57:31;99631.97;;;2.91;100.00
77112;BME280;66064;50.226;14.344;2023-11-19T01:00:01;99624.97;;;2.92;100.00
77112;BME280;66064;50.226;14.344;2023-11-19T01:02:28;99631.31;;;2.97;100.00
77112;BME280;66064;50.226;14.344;2023-11-19T01:04:54;99624.38;;;2.99;100.00
77112;BME280;66064;50.226;14.344;2023-11-19T01:07:21;99609.91;;;2.88;100.00
77112;BME280;66064;50.226;14.344;2023-11-19T01:09:47;99614.63;;;2.96;100.00
77112;BME280;66064;50.226;14.344;2023-11-19T01:12:13;99617.19;;;2.95;100.00
77112;BME280;66064;50.226;14.344;2023-11-19T01:14:39;99612.06;;;2.98;100.00
77112;BME280;66064;50.226;14.344;2023-11-19T01:17:08;99613.03;;;3.00;100.00
77112;BME280;66064;50.226;14.344;2023-11-19T01:19:34;99607.72;;;2.98;100.00
77112;BME280;66064;50.226;14.344;2023-11-19T01:22:01;99595.41;;;2.97;100.00
77112;BME280;66064;50.226;14.344;2023-11-19T01:24:28;99589.25;;;2.97;100.00
77112;BME280;66064;50.226;14.344;2023-11-19T01:26:57;99579.56;;;2.96;100.00
77112;BME280;66064;50.226;14.344;2023-11-19T01:29:23;99586.81;;;3.01;100.00
77112;BME280;66064;50.226;14.344;2023-11-19T01:31:49;99584.13;;;3.00;100.00
77112;BME280;66064;50.226;14.344;2023-11-19T01:34:17;99564.03;;;3.02;100.00
77112;BME280;66064;50.226;14.344;2023-11-19T01:36:43;99557.13;;;3.04;100.00
77112;BME280;66064;50.226;14.344;2023-11-19T01:39:12;99571.81;;;2.99;100.00
77112;BME280;66064;50.226;14.344;2023-11-19T01:41:38;99541.69;;;2.91;100.00
77112;BME280;66064;50.226;14.344;2023-11-19T01:44:07;99529.63;;;2.96;100.00
77112;BME280;66064;50.226;14.344;2023-11-19T01:46:34;99522.69;;;2.98;100.00
77112;BME280;66064;50.226;14.344;2023-11-19T01:49:02;99509.25;;;2.90;100.00
77112;BME280;66064;50.226;14.344;2023-11-19T01:51:29;99509.34;;;2.92;100.00
77112;BME280;66064;50.226;14.344;2023-11-19T01:54:01;99508.25;;;2.87;100.00
77112;BME280;66064;50.226;14.344;2023-11-19T01:56:47;99523.47;;;2.95;100.00
77112;BME280;66064;50.226;14.344;2023-11-19T01:59:13;99531.19;;;2.91;100.00
77112;BME280;66064;50.226;14.344;2023-11-19T02:01:41;99524.13;;;2.90;100.00
77112;BME280;66064;50.226;14.344;2023-11-19T02:04:08;99502.84;;;2.84;100.00
77112;BME280;66064;50.226;14.344;2023-11-19T02:06:37;99502.34;;;2.92;100.00
77112;BME280;66064;50.226;14.344;2023-11-19T02:09:06;99491.84;;;2.94;100.00
77112;BME280;66064;50.226;14.344;2023-11-19T02:11:34;99447.59;;;2.82;100.00
77112;BME280;66064;50.226;14.344;2023-11-19T02:14:01;99455.69;;;2.87;100.00
77112;BME280;66064;50.226;14.344;2023-11-19T02:16:30;99457.34;;;2.85;100.00
77112;BME280;66064;50.226;14.344;2023-11-19T02:18:55;99470.94;;;2.97;100.00
77112;BME280;66064;50.226;14.344;2023-11-19T02:21:22;99462.91;;;2.92;100.00
77112;BME280;66064;50.226;14.344;2023-11-19T02:23:47;99460.38;;;2.95;100.00
77112;BME280;66064;50.226;14.344;2023-11-19T02:26:37;99447.16;;;2.92;100.00
77112;BME280;66064;50.226;14.344;2023-11-19T02:29:05;99464.03;;;2.99;100.00
77112;BME280;66064;50.226;14.344;2023-11-19T02:31:32;99465.94;;;3.03;100.00
77112;BME280;66064;50.226;14.344;2023-11-19T02:33:59;99459.84;;;3.04;100.00
77112;BME280;66064;50.226;14.344;2023-11-19T02:36:28;99440.50;;;3.02;100.00
77112;BME280;66064;50.226;14.344;2023-11-19T02:38:54;99452.97;;;3.07;100.00
77112;BME280;66064;50.226;14.344;2023-11-19T02:41:21;99458.38;;;3.12;100.00
77112;BME280;66064;50.226;14.344;2023-11-19T02:43:46;99459.22;;;3.11;100.00
77112;BME280;66064;50.226;14.344;2023-11-19T02:46:14;99438.31;;;3.14;99.76
77112;BME280;66064;50.226;14.344;2023-11-19T02:48:43;99420.53;;;3.07;100.00
77112;BME280;66064;50.226;14.344;2023-11-19T02:51:11;99431.19;;;3.11;100.00
77112;BME280;66064;50.226;14.344;2023-11-19T02:53:38;99414.66;;;3.14;100.00
77112;BME280;66064;50.226;14.344;2023-11-19T02:56:06;99403.97;;;3.09;100.00
77112;BME280;66064;50.226;14.344;2023-11-19T02:58:45;99408.38;;;3.10;100.00
77112;BME280;66064;50.226;14.344;2023-11-19T03:01:12;99407.47;;;3.08;100.00
77112;BME280;66064;50.226;14.344;2023-11-19T03:03:49;99401.38;;;3.11;100.00
77112;BME280;66064;50.226;14.344;2023-11-19T03:06:20;99403.25;;;3.13;100.00
77112;BME280;66064;50.226;14.344;2023-11-19T03:08:48;99370.22;;;2.98;100.00
77112;BME280;66064;50.226;14.344;2023-11-19T03:11:15;99371.69;;;3.13;100.00
77112;BME280;66064;50.226;14.344;2023-11-19T03:13:41;99354.00;;;3.09;100.00
77112;BME280;66064;50.226;14.344;2023-11-19T03:16:07;99366.53;;;3.16;100.00
77112;BME280;66064;50.226;14.344;2023-11-19T03:18:33;99356.59;;;3.08;100.00
77112;BME280;66064;50.226;14.344;2023-11-19T03:20:59;99342.72;;;3.12;100.00
77112;BME280;66064;50.226;14.344;2023-11-19T03:23:25;99342.66;;;3.10;100.00
77112;BME280;66064;50.226;14.344;2023-11-19T03:25:54;99343.84;;;3.19;100.00
77112;BME280;66064;50.226;14.344;2023-11-19T03:28:20;99332.38;;;3.16;100.00
77112;BME280;66064;50.226;14.344;2023-11-19T03:30:46;99338.56;;;3.19;100.00
77112;BME280;66064;50.226;14.344;2023-11-19T03:33:12;99326.09;;;3.13;100.00
77112;BME280;66064;50.226;14.344;2023-11-19T03:35:38;99334.09;;;3.16;100.00
77112;BME280;66064;50.226;14.344;2023-11-19T03:38:06;99341.47;;;3.26;100.00
77112;BME280;66064;50.226;14.344;2023-11-19T03:40:33;99310.59;;;3.21;100.00
77112;BME280;66064;50.226;14.344;2023-11-19T03:42:59;99320.41;;;3.26;100.00
77112;BME280;66064;50.226;14.344;2023-11-19T03:45:25;99318.75;;;3.28;100.00
77112;BME280;66064;50.226;14.344;2023-11-19T03:47:51;99333.56;;;3.26;100.00
77112;BME280;66064;50.226;14.344;2023-11-19T03:50:17;99319.75;;;3.32;100.00
77112;BME280;66064;50.226;14.344;2023-11-19T03:52:47;99318.97;;;3.34;100.00
77112;BME280;66064;50.226;14.344;2023-11-19T03:55:13;99283.78;;;3.31;100.00
77112;BME280;66064;50.226;14.344;2023-11-19T03:57:39;99304.25;;;3.39;100.00
77112;BME280;66064;50.226;14.344;2023-11-19T04:00:06;99303.25;;;3.36;100.00
77112;BME280;66064;50.226;14.344;2023-11-19T04:02:36;99283.03;;;3.35;100.00
77112;BME280;66064;50.226;14.344;2023-11-19T04:05:03;99278.84;;;3.40;100.00
77112;BME280;66064;50.226;14.344;2023-11-19T04:07:30;99276.28;;;3.43;100.00
77112;BME280;66064;50.226;14.344;2023-11-19T04:09:57;99266.59;;;3.40;100.00
77112;BME280;66064;50.226;14.344;2023-11-19T04:12:24;99240.63;;;3.26;100.00
77112;BME280;66064;50.226;14.344;2023-11-19T04:14:53;99260.50;;;3.43;100.00
77112;BME280;66064;50.226;14.344;2023-11-19T04:17:19;99245.44;;;3.37;100.00
77112;BME280;66064;50.226;14.344;2023-11-19T04:19:45;99234.66;;;3.30;100.00
77112;BME280;66064;50.226;14.344;2023-11-19T04:22:11;99242.91;;;3.40;100.00
77112;BME280;66064;50.226;14.344;2023-11-19T04:24:37;99237.69;;;3.42;100.00
77112;BME280;66064;50.226;14.344;2023-11-19T04:27:04;99230.59;;;3.39;100.00
77112;BME280;66064;50.226;14.344;2023-11-19T04:29:32;99221.06;;;3.43;100.00
77112;BME280;66064;50.226;14.344;2023-11-19T04:31:58;99211.13;;;3.34;100.00
77112;BME280;66064;50.226;14.344;2023-11-19T04:34:26;99214.94;;;3.44;100.00
77112;BME280;66064;50.226;14.344;2023-11-19T04:36:52;99199.03;;;3.39;100.00
77112;BME280;66064;50.226;14.344;2023-11-19T04:39:19;99196.41;;;3.39;100.00
77112;BME280;66064;50.226;14.344;2023-11-19T04:41:51;99202.59;;;3.41;100.00
77112;BME280;66064;50.226;14.344;2023-11-19T04:44:20;99202.59;;;3.41;100.00
77112;BME280;66064;50.226;14.344;2023-11-19T04:46:47;99190.34;;;3.42;100.00
77112;BME280;66064;50.226;14.344;2023-11-19T04:49:13;99191.22;;;3.42;100.00
77112;BME280;66064;50.226;14.344;2023-11-19T04:51:40;99178.19;;;3.45;100.00
77112;BME280;66064;50.226;14.344;2023-11-19T04:54:10;99162.16;;;3.38;100.00
77112;BME280;66064;50.226;14.344;2023-11-19T04:56:36;99142.66;;;3.31;100.00
77112;BME280;66064;50.226;14.344;2023-11-19T04:59:04;99160.56;;;3.43;100.00
77112;BME280;66064;50.226;14.344;2023-11-19T05:01:32;99152.81;;;3.47;100.00
77112;BME280;66064;50.226;14.344;2023-11-19T05:03:59;99141.25;;;3.42;100.00
77112;BME280;66064;50.226;14.344;2023-11-19T05:06:31;99149.44;;;3.51;100.00
77112;BME280;66064;50.226;14.344;2023-11-19T05:08:59;99135.34;;;3.49;100.00
77112;BME280;66064;50.226;14.344;2023-11-19T05:11:35;99121.88;;;3.39;100.00
77112;BME280;66064;50.226;14.344;2023-11-19T05:14:05;99117.31;;;3.33;100.00
77112;BME280;66064;50.226;14.344;2023-11-19T05:16:31;99152.91;;;3.50;100.00
77112;BME280;66064;50.226;14.344;2023-11-19T05:18:57;99155.72;;;3.55;100.00
77112;BME280;66064;50.226;14.344;2023-11-19T05:21:23;99149.56;;;3.55;100.00
77112;BME280;66064;50.226;14.344;2023-11-19T05:23:50;99149.63;;;3.58;100.00
77112;BME280;66064;50.226;14.344;2023-11-19T05:26:20;99128.31;;;3.48;100.00
77112;BME280;66064;50.226;14.344;2023-11-19T05:28:47;99117.78;;;3.48;100.00
77112;BME280;66064;50.226;14.344;2023-11-19T05:31:15;99124.94;;;3.53;100.00
77112;BME280;66064;50.226;14.344;2023-11-19T05:33:41;99119.66;;;3.53;100.00
77112;BME280;66064;50.226;14.344;2023-11-19T05:36:07;99123.34;;;3.59;100.00
77112;BME280;66064;50.226;14.344;2023-11-19T05:38:35;99109.25;;;3.56;100.00
77112;BME280;66064;50.226;14.344;2023-11-19T05:41:03;99098.88;;;3.62;100.00
77112;BME280;66064;50.226;14.344;2023-11-19T05:43:29;99111.19;;;3.63;100.00
77112;BME280;66064;50.226;14.344;2023-11-19T05:45:56;99096.31;;;3.63;100.00
77112;BME280;66064;50.226;14.344;2023-11-19T05:48:22;99086.47;;;3.58;100.00
77112;BME280;66064;50.226;14.344;2023-11-19T05:50:54;99106.03;;;3.66;100.00
77112;BME280;66064;50.226;14.344;2023-11-19T05:53:27;99094.66;;;3.67;100.00
77112;BME280;66064;50.226;14.344;2023-11-19T05:55:52;99085.19;;;3.72;100.00
77112;BME280;66064;50.226;14.344;2023-11-19T05:58:26;99087.72;;;3.69;100.00
77112;BME280;66064;50.226;14.344;2023-11-19T06:00:56;99098.44;;;3.76;100.00
77112;BME280;66064;50.226;14.344;2023-11-19T06:03:23;99105.66;;;3.82;100.00
77112;BME280;66064;50.226;14.344;2023-11-19T06:05:50;99103.84;;;3.81;100.00
77112;BME280;66064;50.226;14.344;2023-11-19T06:08:17;99100.53;;;3.86;100.00
77112;BME280;66064;50.226;14.344;2023-11-19T06:10:44;99078.47;;;3.83;100.00
77112;BME280;66064;50.226;14.344;2023-11-19T06:13:16;99084.69;;;3.85;100.00
77112;BME280;66064;50.226;14.344;2023-11-19T06:15:42;99096.00;;;3.82;100.00
77112;BME280;66064;50.226;14.344;2023-11-19T06:18:09;99102.22;;;3.84;100.00
77112;BME280;66064;50.226;14.344;2023-11-19T06:20:37;99073.97;;;3.79;100.00
77112;BME280;66064;50.226;14.344;2023-11-19T06:23:04;99054.03;;;3.87;100.00
77112;BME280;66064;50.226;14.344;2023-11-19T06:25:30;99053.09;;;3.85;100.00
77112;BME280;66064;50.226;14.344;2023-11-19T06:27:56;99078.53;;;3.84;100.00
77112;BME280;66064;50.226;14.344;2023-11-19T06:30:23;99093.59;;;3.90;100.00
77112;BME280;66064;50.226;14.344;2023-11-19T06:32:49;99090.75;;;3.82;100.00
77112;BME280;66064;50.226;14.344;2023-11-19T06:35:15;99111.34;;;3.97;100.00
77112;BME280;66064;50.226;14.344;2023-11-19T06:37:41;99095.69;;;4.02;100.00
77112;BME280;66064;50.226;14.344;2023-11-19T06:40:10;99075.47;;;4.01;100.00
77112;BME280;66064;50.226;14.344;2023-11-19T06:42:38;99082.63;;;4.06;100.00
77112;BME280;66064;50.226;14.344;2023-11-19T06:45:05;99083.44;;;4.02;100.00
77112;BME280;66064;50.226;14.344;2023-11-19T06:47:32;99091.66;;;4.14;100.00
77112;BME280;66064;50.226;14.344;2023-11-19T06:49:59;99091.75;;;4.17;100.00
77112;BME280;66064;50.226;14.344;2023-11-19T06:52:26;99059.97;;;4.11;100.00
77112;BME280;66064;50.226;14.344;2023-11-19T06:54:52;99070.84;;;4.23;100.00
77112;BME280;66064;50.226;14.344;2023-11-19T06:57:19;99076.84;;;4.18;100.00
77112;BME280;66064;50.226;14.344;2023-11-19T06:59:46;99081.38;;;4.23;100.00
77112;BME280;66064;50.226;14.344;2023-11-19T07:02:12;99062.09;;;4.25;100.00
77112;BME280;66064;50.226;14.344;2023-11-19T07:04:40;99071.00;;;4.30;100.00
77112;BME280;66064;50.226;14.344;2023-11-19T07:07:06;99056.91;;;4.28;100.00
77112;BME280;66064;50.226;14.344;2023-11-19T07:09:32;99076.28;;;4.30;100.00
77112;BME280;66064;50.226;14.344;2023-11-19T07:12:00;99078.16;;;4.34;100.00
77112;BME280;66064;50.226;14.344;2023-11-19T07:14:28;99078.28;;;4.38;100.00
77112;BME280;66064;50.226;14.344;2023-11-19T07:16:55;99078.28;;;4.38;100.00
77112;BME280;66064;50.226;14.344;2023-11-19T07:19:21;99079.25;;;4.42;100.00
77112;BME280;66064;50.226;14.344;2023-11-19T07:21:53;99073.13;;;4.43;100.00
77112;BME280;66064;50.226;14.344;2023-11-19T07:24:20;99062.59;;;4.43;100.00
77112;BME280;66064;50.226;14.344;2023-11-19T07:26:50;99043.16;;;4.38;100.00
77112;BME280;66064;50.226;14.344;2023-11-19T07:29:15;99048.56;;;4.44;100.00
77112;BME280;66064;50.226;14.344;2023-11-19T07:31:45;99036.91;;;4.34;100.00
77112;BME280;66064;50.226;14.344;2023-11-19T07:34:11;99041.28;;;4.34;100.00
77112;BME280;66064;50.226;14.344;2023-11-19T07:36:38;99043.28;;;4.44;100.00
77112;BME280;66064;50.226;14.344;2023-11-19T07:39:04;99060.84;;;4.43;100.00
77112;BME280;66064;50.226;14.344;2023-11-19T07:41:31;99063.69;;;4.51;100.00
77112;BME280;66064;50.226;14.344;2023-11-19T07:43:57;99046.94;;;4.49;100.00
77112;BME280;66064;50.226;14.344;2023-11-19T07:46:24;99068.34;;;4.61;100.00
77112;BME280;66064;50.226;14.344;2023-11-19T07:48:51;99064.66;;;4.54;100.00
77112;BME280;66064;50.226;14.344;2023-11-19T07:51:18;99040.78;;;4.48;100.00
77112;BME280;66064;50.226;14.344;2023-11-19T07:53:44;99052.34;;;4.55;100.00
77112;BME280;66064;50.226;14.344;2023-11-19T07:56:10;99055.84;;;4.52;100.00
77112;BME280;66064;50.226;14.344;2023-11-19T07:58:36;99050.66;;;4.57;100.00
77112;BME280;66064;50.226;14.344;2023-11-19T08:01:03;99049.75;;;4.56;100.00
77112;BME280;66064;50.226;14.344;2023-11-19T08:03:29;99050.81;;;4.63;100.00
77112;BME280;66064;50.226;14.344;2023-11-19T08:05:58;99045.38;;;4.57;100.00
77112;BME280;66064;50.226;14.344;2023-11-19T08:08:24;99031.22;;;4.52;100.00
77112;BME280;66064;50.226;14.344;2023-11-19T08:10:50;99034.94;;;4.60;100.00
77112;BME280;66064;50.226;14.344;2023-11-19T08:13:20;99018.31;;;4.63;100.00
77112;BME280;66064;50.226;14.344;2023-11-19T08:15:46;99017.34;;;4.59;100.00
77112;BME280;66064;50.226;14.344;2023-11-19T08:18:12;99017.56;;;4.68;100.00
77112;BME280;66064;50.226;14.344;2023-11-19T08:20:39;99035.38;;;4.78;100.00
77112;BME280;66064;50.226;14.344;2023-11-19T08:23:05;99025.00;;;4.84;100.00
77112;BME280;66064;50.226;14.344;2023-11-19T08:25:31;99028.34;;;4.77;100.00
77112;BME280;66064;50.226;14.344;2023-11-19T08:27:59;99024.13;;;4.84;100.00
77112;BME280;66064;50.226;14.344;2023-11-19T08:30:26;99014.75;;;4.97;100.00
77112;BME280;66064;50.226;14.344;2023-11-19T08:32:52;98992.34;;;4.79;100.00
77112;BME280;66064;50.226;14.344;2023-11-19T08:35:18;99014.91;;;5.03;100.00
77112;BME280;66064;50.226;14.344;2023-11-19T08:37:44;99021.88;;;5.01;100.00
77112;BME280;66064;50.226;14.344;2023-11-19T08:40:12;99024.31;;;4.93;100.00
77112;BME280;66064;50.226;14.344;2023-11-19T08:42:41;99021.00;;;5.00;100.00
77112;BME280;66064;50.226;14.344;2023-11-19T08:45:08;99006.69;;;4.90;100.00
77112;BME280;66064;50.226;14.344;2023-11-19T08:47:39;99019.28;;;5.02;100.00
77112;BME280;66064;50.226;14.344;2023-11-19T08:50:06;99016.50;;;4.96;100.00
77112;BME280;66064;50.226;14.344;2023-11-19T08:52:34;99020.19;;;5.03;100.00
77112;BME280;66064;50.226;14.344;2023-11-19T08:55:01;99012.97;;;4.96;100.00
77112;BME280;66064;50.226;14.344;2023-11-19T08:57:30;99023.72;;;5.05;100.00
77112;BME280;66064;50.226;14.344;2023-11-19T08:59:56;99006.19;;;5.07;100.00
77112;BME280;66064;50.226;14.344;2023-11-19T09:02:22;99014.56;;;5.26;100.00
77112;BME280;66064;50.226;14.344;2023-11-19T09:04:48;99009.53;;;5.39;100.00
77112;BME280;66064;50.226;14.344;2023-11-19T09:07:15;99030.16;;;5.56;100.00
77112;BME280;66064;50.226;14.344;2023-11-19T09:09:41;99012.09;;;5.76;100.00
77112;BME280;66064;50.226;14.344;2023-11-19T09:12:07;99015.44;;;6.10;100.00
77112;BME280;66064;50.226;14.344;2023-11-19T09:14:33;99015.97;;;6.39;100.00
77112;BME280;66064;50.226;14.344;2023-11-19T09:17:05;99004.78;;;6.53;100.00
77112;BME280;66064;50.226;14.344;2023-11-19T09:19:32;98990.06;;;6.69;100.00
77112;BME280;66064;50.226;14.344;2023-11-19T09:21:58;98994.34;;;7.17;100.00
77112;BME280;66064;50.226;14.344;2023-11-19T09:24:26;98977.44;;;7.70;100.00
77112;BME280;66064;50.226;14.344;2023-11-19T09:26:52;98976.44;;;7.61;97.66
77112;BME280;66064;50.226;14.344;2023-11-19T09:29:18;98963.34;;;7.73;97.41
77112;BME280;66064;50.226;14.344;2023-11-19T09:31:45;98970.66;;;7.94;97.77
77112;BME280;66064;50.226;14.344;2023-11-19T09:34:12;98968.16;;;8.07;97.43
77112;BME280;66064;50.226;14.344;2023-11-19T09:36:38;98963.00;;;8.21;96.70
77112;BME280;66064;50.226;14.344;2023-11-19T09:39:05;98962.72;;;8.89;95.71
77112;BME280;66064;50.226;14.344;2023-11-19T09:41:35;98963.34;;;11.42;88.48
77112;BME280;66064;50.226;14.344;2023-11-19T09:44:06;98959.47;;;13.34;84.84
77112;BME280;66064;50.226;14.344;2023-11-19T09:46:32;98945.91;;;15.79;73.10
77112;BME280;66064;50.226;14.344;2023-11-19T09:49:00;98934.13;;;16.28;67.04
77112;BME280;66064;50.226;14.344;2023-11-19T09:51:28;98936.19;;;16.55;63.78
77112;BME280;66064;50.226;14.344;2023-11-19T09:53:56;98920.75;;;18.27;59.41
77112;BME280;66064;50.226;14.344;2023-11-19T09:56:33;98921.97;;;19.27;55.01
77112;BME280;66064;50.226;14.344;2023-11-19T09:58:59;98915.41;;;19.61;53.48
77112;BME280;66064;50.226;14.344;2023-11-19T10:01:26;98897.13;;;20.39;52.04
77112;BME280;66064;50.226;14.344;2023-11-19T10:03:54;98917.25;;;20.75;50.86
77112;BME280;66064;50.226;14.344;2023-11-19T10:06:22;98915.13;;;20.15;51.10
77112;BME280;66064;50.226;14.344;2023-11-19T10:08:53;98910.19;;;20.03;51.02
77112;BME280;66064;50.226;14.344;2023-11-19T10:11:19;98916.75;;;18.68;52.90
77112;BME280;66064;50.226;14.344;2023-11-19T10:13:46;98889.03;;;19.42;53.20
77112;BME280;66064;50.226;14.344;2023-11-19T10:16:18;98890.03;;;20.58;50.66
77112;BME280;66064;50.226;14.344;2023-11-19T10:18:49;98901.94;;;19.59;51.23
77112;BME280;66064;50.226;14.344;2023-11-19T10:21:19;98910.19;;;16.93;57.41
77112;BME280;66064;50.226;14.344;2023-11-19T10:23:53;98916.00;;;15.56;61.40
77112;BME280;66064;50.226;14.344;2023-11-19T10:26:20;98916.84;;;14.58;65.80
77112;BME280;66064;50.226;14.344;2023-11-19T10:28:48;98905.75;;;13.58;70.31
77112;BME280;66064;50.226;14.344;2023-11-19T10:31:16;98889.88;;;13.44;71.05
77112;BME280;66064;50.226;14.344;2023-11-19T10:33:43;98896.84;;;13.59;71.49
77112;BME280;66064;50.226;14.344;2023-11-19T10:36:11;98875.97;;;13.15;72.49
77112;BME280;66064;50.226;14.344;2023-11-19T10:38:51;98884.75;;;13.26;73.17
77112;BME280;66064;50.226;14.344;2023-11-19T10:41:31;98889.34;;;13.10;74.29
77112;BME280;66064;50.226;14.344;2023-11-19T10:43:59;98891.25;;;12.98;76.19
77112;BME280;66064;50.226;14.344;2023-11-19T10:46:42;98896.94;;;12.63;75.74
77112;BME280;66064;50.226;14.344;2023-11-19T10:49:09;98895.03;;;12.75;76.77
77112;BME280;66064;50.226;14.344;2023-11-19T10:51:36;98889.75;;;12.68;77.55
77112;BME280;66064;50.226;14.344;2023-11-19T10:54:06;98891.72;;;12.46;77.54
77112;BME280;66064;50.226;14.344;2023-11-19T10:56:33;98890.22;;;12.04;81.54
77112;BME280;66064;50.226;14.344;2023-11-19T10:59:00;98888.50;;;12.00;81.56
77112;BME280;66064;50.226;14.344;2023-11-19T11:01:36;98896.50;;;12.01;80.44
77112;BME280;66064;50.226;14.344;2023-11-19T11:04:29;98894.72;;;12.00;82.23
77112;BME280;66064;50.226;14.344;2023-11-19T11:06:58;98880.31;;;12.29;81.69
77112;BME280;66064;50.226;14.344;2023-11-19T11:09:30;98886.44;;;12.35;79.69
77112;BME280;66064;50.226;14.344;2023-11-19T11:11:56;98883.09;;;12.09;80.43
77112;BME280;66064;50.226;14.344;2023-11-19T11:14:24;98883.19;;;11.97;81.75
77112;BME280;66064;50.226;14.344;2023-11-19T11:16:53;98863.94;;;12.67;80.04
77112;BME280;66064;50.226;14.344;2023-11-19T11:19:19;98857.47;;;13.70;76.25
77112;BME280;66064;50.226;14.344;2023-11-19T11:21:49;98858.91;;;14.52;74.50
77112;BME280;66064;50.226;14.344;2023-11-19T11:32:51;98855.22;;;18.82;59.30
77112;BME280;66064;50.226;14.344;2023-11-19T11:38:07;98836.78;;;20.38;54.69
77112;BME280;66064;50.226;14.344;2023-11-19T11:40:35;98853.41;;;20.27;53.91
77112;BME280;66064;50.226;14.344;2023-11-19T11:43:02;98843.69;;;19.77;54.78
77112;BME280;66064;50.226;14.344;2023-11-19T11:45:39;98846.25;;;20.26;53.58
77112;BME280;66064;50.226;14.344;2023-11-19T11:48:10;98845.84;;;20.79;51.69
77112;BME280;66064;50.226;14.344;2023-11-19T11:50:48;98830.66;;;20.11;52.29
77112;BME280;66064;50.226;14.344;2023-11-19T11:53:22;98836.03;;;19.65;53.92
77112;BME280;66064;50.226;14.344;2023-11-19T11:58:30;98831.19;;;20.43;52.57
77112;BME280;66064;50.226;14.344;2023-11-19T12:00:58;98824.69;;;20.69;52.59
77112;BME280;66064;50.226;14.344;2023-11-19T12:03:27;98837.00;;;19.87;54.32
77112;BME280;66064;50.226;14.344;2023-11-19T12:05:56;98831.31;;;19.95;55.20
77112;BME280;66064;50.226;14.344;2023-11-19T12:08:25;98842.56;;;19.59;55.73
77112;BME280;66064;50.226;14.344;2023-11-19T12:10:54;98828.31;;;19.31;56.60
77112;BME280;66064;50.226;14.344;2023-11-19T12:13:24;98835.22;;;19.14;55.79
77112;BME280;66064;50.226;14.344;2023-11-19T12:18:27;98835.16;;;16.48;63.80
77112;BME280;66064;50.226;14.344;2023-11-19T12:20:59;98846.19;;;15.59;66.74
77112;BME280;66064;50.226;14.344;2023-11-19T12:23:32;98832.09;;;15.04;69.68
77112;BME280;66064;50.226;14.344;2023-11-19T12:25:59;98827.41;;;14.68;70.63
77112;BME280;66064;50.226;14.344;2023-11-19T12:28:25;98822.06;;;14.66;69.95
77112;BME280;66064;50.226;14.344;2023-11-19T12:31:08;98818.13;;;14.87;70.63
77112;BME280;66064;50.226;14.344;2023-11-19T12:33:37;98808.34;;;16.11;68.40
77112;BME280;66064;50.226;14.344;2023-11-19T12:36:07;98791.41;;;16.78;62.49
77112;BME280;66064;50.226;14.344;2023-11-19T12:38:35;98786.50;;;16.60;63.37
77112;BME280;66064;50.226;14.344;2023-11-19T12:43:31;98775.72;;;17.27;60.08
77112;BME280;66064;50.226;14.344;2023-11-19T12:45:57;98780.91;;;17.34;59.45
77112;BME280;66064;50.226;14.344;2023-11-19T12:48:24;98779.25;;;17.58;58.45
77112;BME280;66064;50.226;14.344;2023-11-19T12:50:54;98782.34;;;17.75;57.92
77112;BME280;66064;50.226;14.344;2023-11-19T12:53:22;98771.53;;;18.05;58.07
77112;BME280;66064;50.226;14.344;2023-11-19T12:55:54;98771.78;;;17.38;58.94
77112;BME280;66064;50.226;14.344;2023-11-19T12:58:36;98767.94;;;16.87;60.38
77112;BME280;66064;50.226;14.344;2023-11-19T13:01:05;98767.59;;;15.94;62.66
77112;BME280;66064;50.226;14.344;2023-11-19T13:03:36;98784.34;;;15.25;64.82
77112;BME280;66064;50.226;14.344;2023-11-19T13:06:06;98792.59;;;14.68;66.94
77112;BME280;66064;50.226;14.344;2023-11-19T13:08:47;98783.53;;;14.75;68.18
77112;BME280;66064;50.226;14.344;2023-11-19T13:11:30;98776.84;;;15.40;66.95
77112;BME280;66064;50.226;14.344;2023-11-19T13:13:58;98757.75;;;15.57;66.54